This is the latest recevied weather packets stored in our database for station/object N7ZEF. If no packets are shown the sender has not sent any weather packets the latest 10 day(s).
| Time | Temp. | Humidity | Pressure | Rain* | Wind** | Luminosity | Snow |
|---|---|---|---|---|---|---|---|
| 1777933462 | 17.78° C | 27% | 1008.4 hPa | 0 mm | - | - | - |
| 1777932861 | 18.89° C | 25% | 1008.5 hPa | 0 mm | - | - | - |
| 1777932260 | 19.44° C | 25% | 1008.8 hPa | 0 mm | - | - | - |
| 1777931658 | 18.89° C | 26% | 1008.6 hPa | 0 mm | - | - | - |
| 1777931057 | 18.33° C | 28% | 1009 hPa | 0 mm | - | - | - |
| 1777930455 | 18.89° C | 21% | 1009.3 hPa | 0 mm | - | - | - |
| 1777929854 | 18.89° C | 22% | 1009.3 hPa | 0 mm | - | - | - |
| 1777929253 | 18.33° C | 24% | 1009.5 hPa | 0 mm | - | - | - |
| 1777928651 | 18.33° C | 24% | 1009.5 hPa | 0 mm | - | - | - |
| 1777928050 | 17.78° C | 24% | 1009.7 hPa | 0 mm | - | - | - |
| 1777927448 | 17.22° C | 27% | 1009.8 hPa | 0 mm | - | - | - |
| 1777926847 | 17.78° C | 26% | 1010.2 hPa | 0 mm | - | - | - |
| 1777926246 | 18.89° C | 20% | 1009.9 hPa | 0 mm | - | - | - |
| 1777925644 | 18.89° C | 21% | 1009.9 hPa | 0 mm | - | - | - |
| 1777925043 | 18.89° C | 20% | 1009.9 hPa | 0 mm | - | - | - |
| 1777924441 | 18.33° C | 22% | 1010.3 hPa | 0 mm | - | - | - |
| 1777923840 | 16.67° C | 26% | 1010.4 hPa | 0 mm | - | - | - |
| 1777923239 | 16.67° C | 23% | 1010.8 hPa | 0 mm | - | - | - |
| 1777922637 | 17.78° C | 23% | 1010.9 hPa | 0 mm | - | - | - |
| 1777922055 | 18.89° C | 21% | 1010.8 hPa | 0 mm | - | - | - |
| 1777921435 | 18.33° C | 23% | 1010.8 hPa | 0 mm | - | - | - |
| 1777920837 | 17.22° C | 25% | 1011.2 hPa | 0 mm | - | - | - |
| 1777920232 | 17.22° C | 27% | 1011.3 hPa | 0 mm | - | - | - |
| 1777919630 | 16.67° C | 27% | 1011.6 hPa | 0 mm | - | - | - |
| 1777919029 | 16.67° C | 28% | 1011.7 hPa | 0 mm | - | - | - |
* Rain latest hour (hover to see other rain measurements)
** Current wind speed in m/s (hover to see current wind gust speed)